sensor_id;sensor_type;location;lat;lon;timestamp;temperature;humidity
3816;DHT22;1923;48.154;11.536;2023-11-18T00:00:29;6.70;99.90
3816;DHT22;1923;48.154;11.536;2023-11-18T00:02:57;6.70;99.90
3816;DHT22;1923;48.154;11.536;2023-11-18T00:05:25;6.70;99.90
3816;DHT22;1923;48.154;11.536;2023-11-18T00:07:54;6.70;99.90
3816;DHT22;1923;48.154;11.536;2023-11-18T00:10:22;6.70;99.90
3816;DHT22;1923;48.154;11.536;2023-11-18T00:12:52;6.60;99.90
3816;DHT22;1923;48.154;11.536;2023-11-18T00:15:23;6.60;99.90
3816;DHT22;1923;48.154;11.536;2023-11-18T00:17:51;6.70;99.90
3816;DHT22;1923;48.154;11.536;2023-11-18T00:20:19;6.60;99.90
3816;DHT22;1923;48.154;11.536;2023-11-18T00:22:47;6.50;99.90
3816;DHT22;1923;48.154;11.536;2023-11-18T00:25:15;6.50;99.90
3816;DHT22;1923;48.154;11.536;2023-11-18T00:27:43;6.60;99.90
3816;DHT22;1923;48.154;11.536;2023-11-18T00:30:13;6.60;99.90
3816;DHT22;1923;48.154;11.536;2023-11-18T00:32:42;6.50;99.90
3816;DHT22;1923;48.154;11.536;2023-11-18T00:35:10;6.60;99.90
3816;DHT22;1923;48.154;11.536;2023-11-18T00:37:38;6.60;99.90
3816;DHT22;1923;48.154;11.536;2023-11-18T00:40:08;6.60;99.90
3816;DHT22;1923;48.154;11.536;2023-11-18T00:42:36;6.60;99.90
3816;DHT22;1923;48.154;11.536;2023-11-18T00:45:05;6.50;99.90
3816;DHT22;1923;48.154;11.536;2023-11-18T00:47:35;6.50;99.90
3816;DHT22;1923;48.154;11.536;2023-11-18T00:50:04;6.50;99.90
3816;DHT22;1923;48.154;11.536;2023-11-18T00:52:35;6.50;99.90
3816;DHT22;1923;48.154;11.536;2023-11-18T00:55:07;6.50;99.90
3816;DHT22;1923;48.154;11.536;2023-11-18T00:57:37;6.50;99.90
3816;DHT22;1923;48.154;11.536;2023-11-18T01:00:11;6.50;99.90
3816;DHT22;1923;48.154;11.536;2023-11-18T01:02:44;6.50;99.90
3816;DHT22;1923;48.154;11.536;2023-11-18T01:05:12;6.60;99.90
3816;DHT22;1923;48.154;11.536;2023-11-18T01:07:41;6.60;99.90
3816;DHT22;1923;48.154;11.536;2023-11-18T01:10:10;6.60;99.90
3816;DHT22;1923;48.154;11.536;2023-11-18T01:12:40;6.60;99.90
3816;DHT22;1923;48.154;11.536;2023-11-18T01:15:08;6.60;99.90
3816;DHT22;1923;48.154;11.536;2023-11-18T01:17:39;6.60;99.90
3816;DHT22;1923;48.154;11.536;2023-11-18T01:20:10;6.60;99.90
3816;DHT22;1923;48.154;11.536;2023-11-18T01:22:40;6.60;99.90
3816;DHT22;1923;48.154;11.536;2023-11-18T01:25:10;6.60;99.90
3816;DHT22;1923;48.154;11.536;2023-11-18T01:27:38;6.60;99.90
3816;DHT22;1923;48.154;11.536;2023-11-18T01:30:08;6.60;99.90
3816;DHT22;1923;48.154;11.536;2023-11-18T01:32:36;6.60;99.90
3816;DHT22;1923;48.154;11.536;2023-11-18T01:35:09;6.60;99.90
3816;DHT22;1923;48.154;11.536;2023-11-18T01:37:39;6.60;99.90
3816;DHT22;1923;48.154;11.536;2023-11-18T01:40:09;6.60;99.90
3816;DHT22;1923;48.154;11.536;2023-11-18T01:42:42;6.70;99.90
3816;DHT22;1923;48.154;11.536;2023-11-18T01:45:10;6.60;99.90
3816;DHT22;1923;48.154;11.536;2023-11-18T01:47:39;6.60;99.90
3816;DHT22;1923;48.154;11.536;2023-11-18T01:50:10;6.60;99.90
3816;DHT22;1923;48.154;11.536;2023-11-18T01:52:40;6.60;99.90
3816;DHT22;1923;48.154;11.536;2023-11-18T01:55:12;6.50;99.90
3816;DHT22;1923;48.154;11.536;2023-11-18T01:57:40;6.50;99.90
3816;DHT22;1923;48.154;11.536;2023-11-18T02:00:12;6.60;99.90
3816;DHT22;1923;48.154;11.536;2023-11-18T02:02:44;6.60;99.90
3816;DHT22;1923;48.154;11.536;2023-11-18T02:05:14;6.60;99.90
3816;DHT22;1923;48.154;11.536;2023-11-18T02:07:44;6.60;99.90
3816;DHT22;1923;48.154;11.536;2023-11-18T02:10:13;6.60;99.90
3816;DHT22;1923;48.154;11.536;2023-11-18T02:12:46;6.50;99.90
3816;DHT22;1923;48.154;11.536;2023-11-18T02:15:16;6.60;99.90
3816;DHT22;1923;48.154;11.536;2023-11-18T02:17:45;6.60;99.90
3816;DHT22;1923;48.154;11.536;2023-11-18T02:20:17;6.50;99.90
3816;DHT22;1923;48.154;11.536;2023-11-18T02:22:49;6.60;99.90
3816;DHT22;1923;48.154;11.536;2023-11-18T02:25:18;6.60;99.90
3816;DHT22;1923;48.154;11.536;2023-11-18T02:27:49;6.60;99.90
3816;DHT22;1923;48.154;11.536;2023-11-18T02:30:17;6.60;99.90
3816;DHT22;1923;48.154;11.536;2023-11-18T02:32:51;6.60;99.90
3816;DHT22;1923;48.154;11.536;2023-11-18T02:35:24;6.60;99.90
3816;DHT22;1923;48.154;11.536;2023-11-18T02:37:55;6.60;99.90
3816;DHT22;1923;48.154;11.536;2023-11-18T02:40:28;6.60;99.90
3816;DHT22;1923;48.154;11.536;2023-11-18T02:43:00;6.60;99.90
3816;DHT22;1923;48.154;11.536;2023-11-18T02:45:28;6.60;99.90
3816;DHT22;1923;48.154;11.536;2023-11-18T02:47:58;6.60;99.90
3816;DHT22;1923;48.154;11.536;2023-11-18T02:50:27;6.60;99.90
3816;DHT22;1923;48.154;11.536;2023-11-18T02:52:56;6.60;99.90
3816;DHT22;1923;48.154;11.536;2023-11-18T02:55:24;6.60;99.90
3816;DHT22;1923;48.154;11.536;2023-11-18T02:57:52;6.60;99.90
3816;DHT22;1923;48.154;11.536;2023-11-18T03:00:22;6.70;99.90
3816;DHT22;1923;48.154;11.536;2023-11-18T03:02:50;6.60;99.90
3816;DHT22;1923;48.154;11.536;2023-11-18T03:05:20;6.60;99.90
3816;DHT22;1923;48.154;11.536;2023-11-18T03:07:49;6.70;99.90
3816;DHT22;1923;48.154;11.536;2023-11-18T03:10:20;6.70;99.90
3816;DHT22;1923;48.154;11.536;2023-11-18T03:12:49;6.70;99.90
3816;DHT22;1923;48.154;11.536;2023-11-18T03:15:17;6.60;99.90
3816;DHT22;1923;48.154;11.536;2023-11-18T03:17:47;6.60;99.90
3816;DHT22;1923;48.154;11.536;2023-11-18T03:20:17;6.50;99.90
3816;DHT22;1923;48.154;11.536;2023-11-18T03:22:46;6.50;99.90
3816;DHT22;1923;48.154;11.536;2023-11-18T03:25:15;6.40;99.90
3816;DHT22;1923;48.154;11.536;2023-11-18T03:27:43;6.40;99.90
3816;DHT22;1923;48.154;11.536;2023-11-18T03:30:12;6.40;99.90
3816;DHT22;1923;48.154;11.536;2023-11-18T03:32:40;6.50;99.90
3816;DHT22;1923;48.154;11.536;2023-11-18T03:35:10;6.50;99.90
3816;DHT22;1923;48.154;11.536;2023-11-18T03:37:39;6.50;99.90
3816;DHT22;1923;48.154;11.536;2023-11-18T03:40:10;6.50;99.90
3816;DHT22;1923;48.154;11.536;2023-11-18T03:42:39;6.50;99.90
3816;DHT22;1923;48.154;11.536;2023-11-18T03:45:08;6.50;99.90
3816;DHT22;1923;48.154;11.536;2023-11-18T03:47:36;6.50;99.90
3816;DHT22;1923;48.154;11.536;2023-11-18T03:50:05;6.50;99.90
3816;DHT22;1923;48.154;11.536;2023-11-18T03:52:37;6.50;99.90
3816;DHT22;1923;48.154;11.536;2023-11-18T03:55:06;6.50;99.90
3816;DHT22;1923;48.154;11.536;2023-11-18T03:57:34;6.50;99.90
3816;DHT22;1923;48.154;11.536;2023-11-18T04:00:03;6.50;99.90
3816;DHT22;1923;48.154;11.536;2023-11-18T04:02:31;6.50;99.90
3816;DHT22;1923;48.154;11.536;2023-11-18T04:05:01;6.50;99.90
3816;DHT22;1923;48.154;11.536;2023-11-18T04:07:30;6.50;99.90
3816;DHT22;1923;48.154;11.536;2023-11-18T04:10:00;6.40;99.90
3816;DHT22;1923;48.154;11.536;2023-11-18T04:12:28;6.40;99.90
3816;DHT22;1923;48.154;11.536;2023-11-18T04:14:57;6.30;99.90
3816;DHT22;1923;48.154;11.536;2023-11-18T04:17:25;6.40;99.90
3816;DHT22;1923;48.154;11.536;2023-11-18T04:19:55;6.40;99.90
3816;DHT22;1923;48.154;11.536;2023-11-18T04:22:23;6.40;99.90
3816;DHT22;1923;48.154;11.536;2023-11-18T04:24:51;6.40;99.90
3816;DHT22;1923;48.154;11.536;2023-11-18T04:27:21;6.40;99.90
3816;DHT22;1923;48.154;11.536;2023-11-18T04:29:49;6.40;99.90
3816;DHT22;1923;48.154;11.536;2023-11-18T04:32:17;6.40;99.90
3816;DHT22;1923;48.154;11.536;2023-11-18T04:34:46;6.50;99.90
3816;DHT22;1923;48.154;11.536;2023-11-18T04:37:16;6.50;99.90
3816;DHT22;1923;48.154;11.536;2023-11-18T04:39:44;6.40;99.90
3816;DHT22;1923;48.154;11.536;2023-11-18T04:42:13;6.60;99.90
3816;DHT22;1923;48.154;11.536;2023-11-18T04:44:43;6.50;99.90
3816;DHT22;1923;48.154;11.536;2023-11-18T04:47:11;6.50;99.90
3816;DHT22;1923;48.154;11.536;2023-11-18T04:49:39;6.50;99.90
3816;DHT22;1923;48.154;11.536;2023-11-18T04:52:07;6.60;99.90
3816;DHT22;1923;48.154;11.536;2023-11-18T04:54:36;6.50;99.90
3816;DHT22;1923;48.154;11.536;2023-11-18T04:57:04;6.50;99.90
3816;DHT22;1923;48.154;11.536;2023-11-18T04:59:33;6.50;99.90
3816;DHT22;1923;48.154;11.536;2023-11-18T05:02:02;6.50;99.90
3816;DHT22;1923;48.154;11.536;2023-11-18T05:04:31;6.50;99.90
3816;DHT22;1923;48.154;11.536;2023-11-18T05:06:59;6.50;99.90
3816;DHT22;1923;48.154;11.536;2023-11-18T05:09:27;6.50;99.90
3816;DHT22;1923;48.154;11.536;2023-11-18T05:11:55;6.60;99.90
3816;DHT22;1923;48.154;11.536;2023-11-18T05:14:23;6.60;99.90
3816;DHT22;1923;48.154;11.536;2023-11-18T05:16:51;6.60;99.90
3816;DHT22;1923;48.154;11.536;2023-11-18T05:19:20;6.60;99.90
3816;DHT22;1923;48.154;11.536;2023-11-18T05:21:48;6.40;99.90
3816;DHT22;1923;48.154;11.536;2023-11-18T05:24:17;6.50;99.90
3816;DHT22;1923;48.154;11.536;2023-11-18T05:26:45;6.50;99.90
3816;DHT22;1923;48.154;11.536;2023-11-18T05:29:13;6.60;99.90
3816;DHT22;1923;48.154;11.536;2023-11-18T05:31:43;6.60;99.90
3816;DHT22;1923;48.154;11.536;2023-11-18T05:34:12;6.60;99.90
3816;DHT22;1923;48.154;11.536;2023-11-18T05:36:41;6.60;99.90
3816;DHT22;1923;48.154;11.536;2023-11-18T05:39:09;6.60;99.90
3816;DHT22;1923;48.154;11.536;2023-11-18T05:41:37;6.60;99.90
3816;DHT22;1923;48.154;11.536;2023-11-18T05:44:07;6.50;99.90
3816;DHT22;1923;48.154;11.536;2023-11-18T05:46:44;6.60;99.90
3816;DHT22;1923;48.154;11.536;2023-11-18T05:49:13;6.60;99.90
3816;DHT22;1923;48.154;11.536;2023-11-18T05:51:43;6.60;99.90
3816;DHT22;1923;48.154;11.536;2023-11-18T05:54:11;6.70;99.90
3816;DHT22;1923;48.154;11.536;2023-11-18T05:56:39;6.60;99.90
3816;DHT22;1923;48.154;11.536;2023-11-18T05:59:07;6.70;99.90
3816;DHT22;1923;48.154;11.536;2023-11-18T06:01:35;6.70;99.90
3816;DHT22;1923;48.154;11.536;2023-11-18T06:04:04;6.60;99.90
3816;DHT22;1923;48.154;11.536;2023-11-18T06:06:35;6.60;99.90
3816;DHT22;1923;48.154;11.536;2023-11-18T06:09:05;6.60;99.90
3816;DHT22;1923;48.154;11.536;2023-11-18T06:11:36;6.70;99.90
3816;DHT22;1923;48.154;11.536;2023-11-18T06:14:07;6.60;99.90
3816;DHT22;1923;48.154;11.536;2023-11-18T06:16:36;6.60;99.90
3816;DHT22;1923;48.154;11.536;2023-11-18T06:19:08;6.70;99.90
3816;DHT22;1923;48.154;11.536;2023-11-18T06:21:36;6.70;99.90
3816;DHT22;1923;48.154;11.536;2023-11-18T06:24:06;6.60;99.90
3816;DHT22;1923;48.154;11.536;2023-11-18T06:26:38;6.60;99.90
3816;DHT22;1923;48.154;11.536;2023-11-18T06:29:05;6.60;99.90
3816;DHT22;1923;48.154;11.536;2023-11-18T06:31:34;6.70;99.90
3816;DHT22;1923;48.154;11.536;2023-11-18T06:34:02;6.70;99.90
3816;DHT22;1923;48.154;11.536;2023-11-18T06:36:30;6.70;99.90
3816;DHT22;1923;48.154;11.536;2023-11-18T06:38:58;6.70;99.90
3816;DHT22;1923;48.154;11.536;2023-11-18T06:41:28;6.70;99.90
3816;DHT22;1923;48.154;11.536;2023-11-18T06:44:01;6.70;99.90
3816;DHT22;1923;48.154;11.536;2023-11-18T06:46:36;6.60;99.90
3816;DHT22;1923;48.154;11.536;2023-11-18T06:49:07;6.80;99.90
3816;DHT22;1923;48.154;11.536;2023-11-18T06:51:38;6.80;99.90
3816;DHT22;1923;48.154;11.536;2023-11-18T06:54:06;6.90;99.90
3816;DHT22;1923;48.154;11.536;2023-11-18T06:56:41;6.90;99.90
3816;DHT22;1923;48.154;11.536;2023-11-18T06:59:12;6.90;99.90
3816;DHT22;1923;48.154;11.536;2023-11-18T07:01:43;6.90;99.90
3816;DHT22;1923;48.154;11.536;2023-11-18T07:04:13;7.00;99.90
3816;DHT22;1923;48.154;11.536;2023-11-18T07:06:42;7.00;99.90
3816;DHT22;1923;48.154;11.536;2023-11-18T07:09:11;7.00;99.90
3816;DHT22;1923;48.154;11.536;2023-11-18T07:11:45;7.00;99.90
3816;DHT22;1923;48.154;11.536;2023-11-18T07:14:15;6.90;99.90
3816;DHT22;1923;48.154;11.536;2023-11-18T07:16:43;6.90;99.90
3816;DHT22;1923;48.154;11.536;2023-11-18T07:19:12;6.90;99.90
3816;DHT22;1923;48.154;11.536;2023-11-18T07:21:48;7.00;99.90
3816;DHT22;1923;48.154;11.536;2023-11-18T07:24:17;7.00;99.90
3816;DHT22;1923;48.154;11.536;2023-11-18T07:26:49;7.00;99.90
3816;DHT22;1923;48.154;11.536;2023-11-18T07:29:18;7.10;99.90
3816;DHT22;1923;48.154;11.536;2023-11-18T07:31:46;7.20;99.90
3816;DHT22;1923;48.154;11.536;2023-11-18T07:34:14;7.20;99.90
3816;DHT22;1923;48.154;11.536;2023-11-18T07:36:42;7.30;99.90
3816;DHT22;1923;48.154;11.536;2023-11-18T07:39:12;7.30;99.90
3816;DHT22;1923;48.154;11.536;2023-11-18T07:41:43;7.30;99.90
3816;DHT22;1923;48.154;11.536;2023-11-18T07:44:12;7.40;99.90
3816;DHT22;1923;48.154;11.536;2023-11-18T07:46:41;7.40;99.90
3816;DHT22;1923;48.154;11.536;2023-11-18T07:49:10;7.40;99.90
3816;DHT22;1923;48.154;11.536;2023-11-18T07:51:38;7.50;99.90
3816;DHT22;1923;48.154;11.536;2023-11-18T07:54:07;7.60;99.90
3816;DHT22;1923;48.154;11.536;2023-11-18T07:56:36;7.70;99.90
3816;DHT22;1923;48.154;11.536;2023-11-18T07:59:04;7.80;99.90
3816;DHT22;1923;48.154;11.536;2023-11-18T08:01:42;7.80;99.90
3816;DHT22;1923;48.154;11.536;2023-11-18T08:04:11;7.90;99.90
3816;DHT22;1923;48.154;11.536;2023-11-18T08:06:40;8.00;99.90
3816;DHT22;1923;48.154;11.536;2023-11-18T08:09:09;8.10;99.90
3816;DHT22;1923;48.154;11.536;2023-11-18T08:11:40;8.20;99.90
3816;DHT22;1923;48.154;11.536;2023-11-18T08:14:08;8.30;99.90
3816;DHT22;1923;48.154;11.536;2023-11-18T08:16:36;8.40;99.90
3816;DHT22;1923;48.154;11.536;2023-11-18T08:19:06;8.50;99.90
3816;DHT22;1923;48.154;11.536;2023-11-18T08:21:34;8.60;99.90
3816;DHT22;1923;48.154;11.536;2023-11-18T08:24:06;8.50;99.90
3816;DHT22;1923;48.154;11.536;2023-11-18T08:26:35;8.60;99.90
3816;DHT22;1923;48.154;11.536;2023-11-18T08:29:03;8.70;99.90
3816;DHT22;1923;48.154;11.536;2023-11-18T08:31:31;8.70;99.90
3816;DHT22;1923;48.154;11.536;2023-11-18T08:33:59;8.70;99.90
3816;DHT22;1923;48.154;11.536;2023-11-18T08:36:29;8.80;99.90
3816;DHT22;1923;48.154;11.536;2023-11-18T08:38:59;8.80;99.90
3816;DHT22;1923;48.154;11.536;2023-11-18T08:41:27;8.80;99.90
3816;DHT22;1923;48.154;11.536;2023-11-18T08:43:55;8.90;99.90
3816;DHT22;1923;48.154;11.536;2023-11-18T08:46:41;9.10;99.90
3816;DHT22;1923;48.154;11.536;2023-11-18T08:49:12;9.10;99.90
3816;DHT22;1923;48.154;11.536;2023-11-18T08:51:41;9.20;99.90
3816;DHT22;1923;48.154;11.536;2023-11-18T08:54:09;9.30;99.90
3816;DHT22;1923;48.154;11.536;2023-11-18T08:56:49;9.30;99.90
3816;DHT22;1923;48.154;11.536;2023-11-18T08:59:19;9.40;99.90
3816;DHT22;1923;48.154;11.536;2023-11-18T09:01:51;9.50;99.90
3816;DHT22;1923;48.154;11.536;2023-11-18T09:04:23;9.60;99.90
3816;DHT22;1923;48.154;11.536;2023-11-18T09:06:52;9.60;99.90
3816;DHT22;1923;48.154;11.536;2023-11-18T09:09:21;9.60;99.90
3816;DHT22;1923;48.154;11.536;2023-11-18T09:11:54;9.60;99.90
3816;DHT22;1923;48.154;11.536;2023-11-18T09:14:23;9.80;99.90
3816;DHT22;1923;48.154;11.536;2023-11-18T09:16:53;9.80;99.90
3816;DHT22;1923;48.154;11.536;2023-11-18T09:19:23;9.80;99.90
3816;DHT22;1923;48.154;11.536;2023-11-18T09:21:53;9.90;99.90
3816;DHT22;1923;48.154;11.536;2023-11-18T09:24:21;9.90;99.90
3816;DHT22;1923;48.154;11.536;2023-11-18T09:26:52;10.00;99.90
3816;DHT22;1923;48.154;11.536;2023-11-18T09:29:21;10.20;99.90
3816;DHT22;1923;48.154;11.536;2023-11-18T09:31:51;10.40;99.90
3816;DHT22;1923;48.154;11.536;2023-11-18T09:34:21;10.60;99.90
3816;DHT22;1923;48.154;11.536;2023-11-18T09:36:55;10.70;99.90
3816;DHT22;1923;48.154;11.536;2023-11-18T09:39:23;10.90;99.90
3816;DHT22;1923;48.154;11.536;2023-11-18T09:42:06;11.10;99.90
3816;DHT22;1923;48.154;11.536;2023-11-18T09:44:37;11.40;99.90
3816;DHT22;1923;48.154;11.536;2023-11-18T09:47:08;11.40;99.90
3816;DHT22;1923;48.154;11.536;2023-11-18T09:49:44;11.60;99.90
3816;DHT22;1923;48.154;11.536;2023-11-18T09:52:16;11.90;99.90
3816;DHT22;1923;48.154;11.536;2023-11-18T09:54:54;12.70;99.90
3816;DHT22;1923;48.154;11.536;2023-11-18T09:57:31;13.80;99.90
3816;DHT22;1923;48.154;11.536;2023-11-18T10:00:03;14.90;99.90
3816;DHT22;1923;48.154;11.536;2023-11-18T10:02:48;15.60;99.90
3816;DHT22;1923;48.154;11.536;2023-11-18T10:05:20;16.30;99.90
3816;DHT22;1923;48.154;11.536;2023-11-18T10:07:50;16.40;99.90
3816;DHT22;1923;48.154;11.536;2023-11-18T10:10:19;16.90;99.90
3816;DHT22;1923;48.154;11.536;2023-11-18T10:12:48;17.60;99.90
3816;DHT22;1923;48.154;11.536;2023-11-18T10:15:20;18.10;99.60
3816;DHT22;1923;48.154;11.536;2023-11-18T10:17:51;18.50;98.10
3816;DHT22;1923;48.154;11.536;2023-11-18T10:20:43;18.50;97.30
3816;DHT22;1923;48.154;11.536;2023-11-18T10:23:15;19.00;96.80
3816;DHT22;1923;48.154;11.536;2023-11-18T10:25:47;19.80;96.00
3816;DHT22;1923;48.154;11.536;2023-11-18T10:28:25;20.50;94.50
3816;DHT22;1923;48.154;11.536;2023-11-18T10:30:55;21.00;93.10
3816;DHT22;1923;48.154;11.536;2023-11-18T10:33:26;21.00;92.30
3816;DHT22;1923;48.154;11.536;2023-11-18T10:35:59;20.80;90.80
3816;DHT22;1923;48.154;11.536;2023-11-18T10:38:32;20.60;91.40
3816;DHT22;1923;48.154;11.536;2023-11-18T10:41:04;20.60;90.40
3816;DHT22;1923;48.154;11.536;2023-11-18T10:43:33;20.60;90.00
3816;DHT22;1923;48.154;11.536;2023-11-18T10:46:06;21.00;89.10
3816;DHT22;1923;48.154;11.536;2023-11-18T10:48:40;21.30;88.90
3816;DHT22;1923;48.154;11.536;2023-11-18T10:51:12;20.90;88.40
3816;DHT22;1923;48.154;11.536;2023-11-18T10:53:42;20.60;87.80
3816;DHT22;1923;48.154;11.536;2023-11-18T10:56:20;20.20;88.40
3816;DHT22;1923;48.154;11.536;2023-11-18T10:58:55;19.80;88.10
3816;DHT22;1923;48.154;11.536;2023-11-18T11:01:30;19.80;88.00
3816;DHT22;1923;48.154;11.536;2023-11-18T11:04:00;19.70;86.60
3816;DHT22;1923;48.154;11.536;2023-11-18T11:06:33;19.60;85.90
3816;DHT22;1923;48.154;11.536;2023-11-18T11:09:03;19.10;87.30
3816;DHT22;1923;48.154;11.536;2023-11-18T11:11:40;18.20;88.40
3816;DHT22;1923;48.154;11.536;2023-11-18T11:14:12;16.90;90.70
3816;DHT22;1923;48.154;11.536;2023-11-18T11:16:47;16.10;91.80
3816;DHT22;1923;48.154;11.536;2023-11-18T11:19:24;15.30;92.90
3816;DHT22;1923;48.154;11.536;2023-11-18T11:22:01;14.40;93.80
3816;DHT22;1923;48.154;11.536;2023-11-18T11:24:54;13.70;94.90
3816;DHT22;1923;48.154;11.536;2023-11-18T11:27:31;12.90;96.00
3816;DHT22;1923;48.154;11.536;2023-11-18T11:30:12;12.60;97.50
3816;DHT22;1923;48.154;11.536;2023-11-18T11:32:48;12.20;99.10
3816;DHT22;1923;48.154;11.536;2023-11-18T11:35:23;11.90;99.90
3816;DHT22;1923;48.154;11.536;2023-11-18T11:37:53;11.60;99.90
3816;DHT22;1923;48.154;11.536;2023-11-18T11:40:31;11.50;99.90
3816;DHT22;1923;48.154;11.536;2023-11-18T11:43:02;11.30;99.90
3816;DHT22;1923;48.154;11.536;2023-11-18T11:45:33;11.10;99.90
3816;DHT22;1923;48.154;11.536;2023-11-18T11:48:03;11.20;99.90
3816;DHT22;1923;48.154;11.536;2023-11-18T11:50:57;11.10;99.90
3816;DHT22;1923;48.154;11.536;2023-11-18T11:53:34;11.10;99.90
3816;DHT22;1923;48.154;11.536;2023-11-18T11:56:07;11.00;99.90
3816;DHT22;1923;48.154;11.536;2023-11-18T11:58:41;11.10;99.90
3816;DHT22;1923;48.154;11.536;2023-11-18T12:01:24;11.10;99.90
3816;DHT22;1923;48.154;11.536;2023-11-18T12:03:57;11.10;99.90
3816;DHT22;1923;48.154;11.536;2023-11-18T12:06:33;11.10;99.90
3816;DHT22;1923;48.154;11.536;2023-11-18T12:09:05;11.20;99.90
3816;DHT22;1923;48.154;11.536;2023-11-18T12:11:36;11.30;99.90
3816;DHT22;1923;48.154;11.536;2023-11-18T12:14:07;11.20;99.90
3816;DHT22;1923;48.154;11.536;2023-11-18T12:17:02;11.30;99.90
3816;DHT22;1923;48.154;11.536;2023-11-18T12:19:40;11.30;99.90
3816;DHT22;1923;48.154;11.536;2023-11-18T12:22:16;11.30;99.90
3816;DHT22;1923;48.154;11.536;2023-11-18T12:28:09;11.00;99.90
3816;DHT22;1923;48.154;11.536;2023-11-18T12:30:38;11.00;99.90
3816;DHT22;1923;48.154;11.536;2023-11-18T12:33:10;11.00;99.90
3816;DHT22;1923;48.154;11.536;2023-11-18T12:39:08;10.90;99.90
3816;DHT22;1923;48.154;11.536;2023-11-18T12:41:41;10.90;99.90
3816;DHT22;1923;48.154;11.536;2023-11-18T12:44:15;10.90;99.90
3816;DHT22;1923;48.154;11.536;2023-11-18T12:46:50;10.80;99.90
3816;DHT22;1923;48.154;11.536;2023-11-18T12:49:21;10.90;99.90
3816;DHT22;1923;48.154;11.536;2023-11-18T12:51:52;10.90;99.90
3816;DHT22;1923;48.154;11.536;2023-11-18T12:54:23;10.90;99.90
3816;DHT22;1923;48.154;11.536;2023-11-18T12:56:55;11.00;99.90
3816;DHT22;1923;48.154;11.536;2023-11-18T12:59:24;10.80;99.90
3816;DHT22;1923;48.154;11.536;2023-11-18T13:01:53;10.90;99.90
3816;DHT22;1923;48.154;11.536;2023-11-18T13:04:24;10.90;99.90
3816;DHT22;1923;48.154;11.536;2023-11-18T13:06:54;10.90;99.90
3816;DHT22;1923;48.154;11.536;2023-11-18T13:09:22;10.80;99.90
3816;DHT22;1923;48.154;11.536;2023-11-18T13:11:56;10.80;99.90
3816;DHT22;1923;48.154;11.536;2023-11-18T13:14:31;10.90;99.90
3816;DHT22;1923;48.154;11.536;2023-11-18T13:17:04;10.90;99.90
3816;DHT22;1923;48.154;11.536;2023-11-18T13:19:33;10.80;99.90
3816;DHT22;1923;48.154;11.536;2023-11-18T13:22:03;10.80;99.90
3816;DHT22;1923;48.154;11.536;2023-11-18T13:24:31;10.70;99.90
3816;DHT22;1923;48.154;11.536;2023-11-18T13:27:00;10.70;99.90
3816;DHT22;1923;48.154;11.536;2023-11-18T13:29:32;10.60;99.90
3816;DHT22;1923;48.154;11.536;2023-11-18T13:32:01;10.40;99.90
3816;DHT22;1923;48.154;11.536;2023-11-18T13:34:32;10.40;99.90
3816;DHT22;1923;48.154;11.536;2023-11-18T13:37:01;10.30;99.90
3816;DHT22;1923;48.154;11.536;2023-11-18T13:39:30;10.40;99.90
3816;DHT22;1923;48.154;11.536;2023-11-18T13:42:01;10.30;99.90
3816;DHT22;1923;48.154;11.536;2023-11-18T13:44:47;10.20;99.90
3816;DHT22;1923;48.154;11.536;2023-11-18T13:47:17;10.10;99.90
3816;DHT22;1923;48.154;11.536;2023-11-18T13:49:49;10.10;99.90
3816;DHT22;1923;48.154;11.536;2023-11-18T13:52:18;10.00;99.90
3816;DHT22;1923;48.154;11.536;2023-11-18T13:54:47;10.00;99.90
3816;DHT22;1923;48.154;11.536;2023-11-18T13:57:23;9.90;99.90
3816;DHT22;1923;48.154;11.536;2023-11-18T13:59:53;9.90;99.90
3816;DHT22;1923;48.154;11.536;2023-11-18T14:02:21;9.80;99.90
3816;DHT22;1923;48.154;11.536;2023-11-18T14:04:51;9.90;99.90
3816;DHT22;1923;48.154;11.536;2023-11-18T14:07:23;9.80;99.90
3816;DHT22;1923;48.154;11.536;2023-11-18T14:09:51;9.80;99.90
3816;DHT22;1923;48.154;11.536;2023-11-18T14:12:23;9.80;99.90
3816;DHT22;1923;48.154;11.536;2023-11-18T14:14:56;9.90;99.90
3816;DHT22;1923;48.154;11.536;2023-11-18T14:17:24;9.80;99.90
3816;DHT22;1923;48.154;11.536;2023-11-18T14:19:52;9.80;99.90
3816;DHT22;1923;48.154;11.536;2023-11-18T14:22:44;9.80;99.90
3816;DHT22;1923;48.154;11.536;2023-11-18T14:25:12;9.70;99.90
3816;DHT22;1923;48.154;11.536;2023-11-18T14:27:41;9.80;99.90
3816;DHT22;1923;48.154;11.536;2023-11-18T14:30:12;9.70;99.90
3816;DHT22;1923;48.154;11.536;2023-11-18T14:32:40;9.80;99.90
3816;DHT22;1923;48.154;11.536;2023-11-18T14:35:08;9.70;99.90
3816;DHT22;1923;48.154;11.536;2023-11-18T14:37:38;9.70;99.90
3816;DHT22;1923;48.154;11.536;2023-11-18T14:40:10;9.60;99.90
3816;DHT22;1923;48.154;11.536;2023-11-18T14:42:44;9.50;99.90
3816;DHT22;1923;48.154;11.536;2023-11-18T14:45:14;9.50;99.90
3816;DHT22;1923;48.154;11.536;2023-11-18T14:47:44;9.40;99.90
3816;DHT22;1923;48.154;11.536;2023-11-18T14:50:19;9.20;99.90
3816;DHT22;1923;48.154;11.536;2023-11-18T14:52:48;9.10;99.90
3816;DHT22;1923;48.154;11.536;2023-11-18T14:55:18;9.00;99.90
3816;DHT22;1923;48.154;11.536;2023-11-18T14:57:46;9.00;99.90
3816;DHT22;1923;48.154;11.536;2023-11-18T15:00:16;8.90;99.90
3816;DHT22;1923;48.154;11.536;2023-11-18T15:02:49;8.90;99.90
3816;DHT22;1923;48.154;11.536;2023-11-18T15:05:22;8.70;99.90
3816;DHT22;1923;48.154;11.536;2023-11-18T15:07:51;8.80;99.90
3816;DHT22;1923;48.154;11.536;2023-11-18T15:10:21;8.80;99.90
3816;DHT22;1923;48.154;11.536;2023-11-18T15:12:50;8.70;99.90
3816;DHT22;1923;48.154;11.536;2023-11-18T15:15:21;8.70;99.90
3816;DHT22;1923;48.154;11.536;2023-11-18T15:17:58;8.70;99.90
3816;DHT22;1923;48.154;11.536;2023-11-18T15:20:26;8.80;99.90
3816;DHT22;1923;48.154;11.536;2023-11-18T15:22:54;8.80;99.90
3816;DHT22;1923;48.154;11.536;2023-11-18T15:25:23;8.80;99.90
3816;DHT22;1923;48.154;11.536;2023-11-18T15:27:51;8.80;99.90
3816;DHT22;1923;48.154;11.536;2023-11-18T15:30:21;8.80;99.90
3816;DHT22;1923;48.154;11.536;2023-11-18T15:32:51;8.90;99.90
3816;DHT22;1923;48.154;11.536;2023-11-18T15:35:19;8.80;99.90
3816;DHT22;1923;48.154;11.536;2023-11-18T15:37:48;8.80;99.90
3816;DHT22;1923;48.154;11.536;2023-11-18T15:40:17;8.90;99.90
3816;DHT22;1923;48.154;11.536;2023-11-18T15:42:48;8.90;99.90
3816;DHT22;1923;48.154;11.536;2023-11-18T15:45:18;8.90;99.90
3816;DHT22;1923;48.154;11.536;2023-11-18T15:47:47;9.00;99.90
3816;DHT22;1923;48.154;11.536;2023-11-18T15:50:16;8.80;99.90
3816;DHT22;1923;48.154;11.536;2023-11-18T15:52:46;8.80;99.90
3816;DHT22;1923;48.154;11.536;2023-11-18T15:55:15;8.90;99.90
3816;DHT22;1923;48.154;11.536;2023-11-18T15:57:46;8.90;99.90
3816;DHT22;1923;48.154;11.536;2023-11-18T16:00:21;8.90;99.90
3816;DHT22;1923;48.154;11.536;2023-11-18T16:02:53;8.90;99.90
3816;DHT22;1923;48.154;11.536;2023-11-18T16:05:28;8.90;99.90
3816;DHT22;1923;48.154;11.536;2023-11-18T16:08:02;8.90;99.90
3816;DHT22;1923;48.154;11.536;2023-11-18T16:10:31;8.90;99.90
3816;DHT22;1923;48.154;11.536;2023-11-18T16:13:01;8.90;99.90
3816;DHT22;1923;48.154;11.536;2023-11-18T16:15:30;8.90;99.90
3816;DHT22;1923;48.154;11.536;2023-11-18T16:18:00;9.00;99.90
3816;DHT22;1923;48.154;11.536;2023-11-18T16:20:30;8.90;99.90
3816;DHT22;1923;48.154;11.536;2023-11-18T16:23:00;8.80;99.90
3816;DHT22;1923;48.154;11.536;2023-11-18T16:25:30;8.90;99.90